EZY703 LPPR-ENBR
Flight info
| Callsign | EZY703 |
|---|---|
| Flight time | 3h 2m |
| Altitude | 24000 |
| Route | TURON P600 ASDEB/N0457F360 DCT KORUL DCT KOLEK DCT EBOMO DCT RUSIB DCT NOZHU/N0450F370 DCT BHD DCT WIGGU DCT AZCAL DCT AVTIC DCT ANJAK/N0447F360 N38 NOKIN UP16 RIBEL/N0449F370 DCT RIGVU DCT MODNI |
| Aircraft | A320/M-SDE3FGHIRWY/LB1 |
Departure
| Time | 2026-05-05 08:43 |
|---|---|
| Airport | Francisco de Sá Carneiro Airport (LPPR) |
Arrival
| Time | 2026-05-05 11:45 |
|---|---|
| Airport | Bergen Airport, Flesland (ENBR) |
| Time | Latitude | Longitude | Altitude | Speed | Heading |
|---|---|---|---|---|---|
| 2026-05-05 08:17 | 41.23686 | -8.67249 | 243 ft | 0 kts | 79° |
| 2026-05-05 08:35 | 41.23683 | -8.67269 | 242 ft | 2 kts | 79° |
| 2026-05-05 08:35 | 41.23680 | -8.67290 | 242 ft | 2 kts | 78° |
| 2026-05-05 08:36 | 41.23677 | -8.67312 | 242 ft | 2 kts | 78° |
| 2026-05-05 08:36 | 41.23673 | -8.67333 | 242 ft | 2 kts | 92° |
| 2026-05-05 08:36 | 41.23680 | -8.67351 | 242 ft | 2 kts | 154° |
| 2026-05-05 08:36 | 41.23690 | -8.67357 | 242 ft | 1 kts | 155° |
| 2026-05-05 08:39 | 41.23660 | -8.67345 | 242 ft | 8 kts | 166° |
| 2026-05-05 08:39 | 41.23609 | -8.67337 | 242 ft | 6 kts | 184° |
| 2026-05-05 08:40 | 41.23581 | -8.67377 | 239 ft | 8 kts | 254° |
| 2026-05-05 08:40 | 41.23615 | -8.67425 | 237 ft | 8 kts | 326° |
| 2026-05-05 08:40 | 41.23630 | -8.67492 | 235 ft | 8 kts | 262° |
| 2026-05-05 08:40 | 41.23620 | -8.67553 | 235 ft | 6 kts | 258° |
| 2026-05-05 08:41 | 41.23613 | -8.67603 | 236 ft | 6 kts | 259° |
| 2026-05-05 08:41 | 41.23605 | -8.67660 | 233 ft | 7 kts | 259° |
| 2026-05-05 08:41 | 41.23594 | -8.67729 | 231 ft | 8 kts | 257° |
| 2026-05-05 08:41 | 41.23586 | -8.67803 | 231 ft | 6 kts | 292° |
| 2026-05-05 08:42 | 41.23623 | -8.67813 | 230 ft | 6 kts | 346° |
| 2026-05-05 08:42 | 41.23770 | -8.67852 | 223 ft | 55 kts | 349° |
| 2026-05-05 08:42 | 41.24378 | -8.68009 | 213 ft | 120 kts | 349° |
| 2026-05-05 08:42 | 41.25379 | -8.68271 | 178 ft | 171 kts | 349° |
| 2026-05-05 08:43 | 41.26639 | -8.68560 | 519 ft | 187 kts | 351° |
| 2026-05-05 08:43 | 41.27964 | -8.68898 | 1031 ft | 204 kts | 348° |
| 2026-05-05 08:43 | 41.29423 | -8.69292 | 1475 ft | 224 kts | 347° |
| 2026-05-05 08:43 | 41.30955 | -8.69707 | 2194 ft | 231 kts | 347° |
| 2026-05-05 08:44 | 41.32625 | -8.70158 | 2760 ft | 249 kts | 348° |
| 2026-05-05 08:44 | 41.34340 | -8.70618 | 3634 ft | 253 kts | 347° |
| 2026-05-05 08:44 | 41.36053 | -8.71073 | 4551 ft | 255 kts | 347° |
| 2026-05-05 08:44 | 41.37798 | -8.71533 | 5476 ft | 256 kts | 347° |
| 2026-05-05 08:45 | 41.39553 | -8.71995 | 6401 ft | 259 kts | 347° |
| 2026-05-05 08:45 | 41.41331 | -8.72458 | 7261 ft | 261 kts | 349° |
| 2026-05-05 08:45 | 41.43158 | -8.72543 | 8099 ft | 266 kts | 4° |
| 2026-05-05 08:45 | 41.45001 | -8.72116 | 8972 ft | 269 kts | 8° |
| 2026-05-05 08:46 | 41.46850 | -8.71646 | 9826 ft | 271 kts | 8° |
| 2026-05-05 08:46 | 41.48722 | -8.71170 | 10440 ft | 282 kts | 8° |
| 2026-05-05 08:46 | 41.50733 | -8.70665 | 10664 ft | 305 kts | 8° |
| 2026-05-05 08:46 | 41.52897 | -8.70123 | 10854 ft | 327 kts | 8° |
| 2026-05-05 08:47 | 41.55168 | -8.69546 | 11380 ft | 336 kts | 8° |
| 2026-05-05 08:47 | 41.57452 | -8.68962 | 12046 ft | 340 kts | 8° |
| 2026-05-05 08:47 | 41.59789 | -8.68367 | 12757 ft | 344 kts | 8° |
| 2026-05-05 08:47 | 41.62146 | -8.67767 | 13472 ft | 347 kts | 8° |
| 2026-05-05 08:48 | 41.64529 | -8.67158 | 14149 ft | 350 kts | 8° |
| 2026-05-05 08:48 | 41.66932 | -8.66545 | 14759 ft | 353 kts | 8° |
| 2026-05-05 08:48 | 41.69355 | -8.65928 | 15382 ft | 356 kts | 8° |
| 2026-05-05 08:48 | 41.71801 | -8.65304 | 15998 ft | 359 kts | 8° |
| 2026-05-05 08:49 | 41.74260 | -8.64673 | 16613 ft | 362 kts | 8° |
| 2026-05-05 08:49 | 41.76745 | -8.64039 | 17199 ft | 365 kts | 8° |
| 2026-05-05 08:49 | 41.79250 | -8.63401 | 17777 ft | 367 kts | 7° |
| 2026-05-05 08:49 | 41.81773 | -8.62760 | 18345 ft | 371 kts | 7° |
| 2026-05-05 08:50 | 41.84279 | -8.62123 | 18836 ft | 373 kts | 7° |
| 2026-05-05 08:50 | 41.86839 | -8.61469 | 19341 ft | 376 kts | 8° |
| 2026-05-05 08:50 | 41.89412 | -8.60810 | 19859 ft | 378 kts | 7° |
| 2026-05-05 08:50 | 41.92005 | -8.60147 | 20352 ft | 380 kts | 7° |
| 2026-05-05 08:51 | 41.94607 | -8.59483 | 20826 ft | 382 kts | 7° |
| 2026-05-05 08:51 | 41.97228 | -8.58813 | 21334 ft | 384 kts | 7° |
| 2026-05-05 08:51 | 41.99858 | -8.58141 | 21833 ft | 386 kts | 7° |
| 2026-05-05 08:51 | 42.02507 | -8.57459 | 22305 ft | 388 kts | 8° |
| 2026-05-05 08:52 | 42.05163 | -8.56771 | 22783 ft | 390 kts | 8° |
| 2026-05-05 08:52 | 42.07846 | -8.56106 | 23243 ft | 392 kts | 6° |
| 2026-05-05 08:52 | 42.10509 | -8.55587 | 23676 ft | 393 kts | 4° |
| 2026-05-05 08:52 | 42.13234 | -8.55161 | 24029 ft | 395 kts | 3° |
| 2026-05-05 08:53 | 42.15969 | -8.54783 | 24367 ft | 397 kts | 3° |
| 2026-05-05 08:53 | 42.18730 | -8.54407 | 24704 ft | 399 kts | 3° |
| 2026-05-05 08:53 | 42.21502 | -8.54012 | 25042 ft | 402 kts | 3° |
| 2026-05-05 08:53 | 42.24280 | -8.53593 | 25366 ft | 403 kts | 4° |
| 2026-05-05 08:54 | 42.27076 | -8.53150 | 25667 ft | 406 kts | 4° |
| 2026-05-05 08:54 | 42.29890 | -8.52693 | 25981 ft | 409 kts | 4° |
| 2026-05-05 08:54 | 42.32724 | -8.52231 | 26305 ft | 411 kts | 4° |
| 2026-05-05 08:54 | 42.35570 | -8.51768 | 26636 ft | 413 kts | 4° |
| 2026-05-05 08:55 | 42.38428 | -8.51307 | 26951 ft | 415 kts | 4° |
| 2026-05-05 08:55 | 42.41303 | -8.50847 | 27264 ft | 417 kts | 4° |
| 2026-05-05 08:55 | 42.44198 | -8.50386 | 27566 ft | 420 kts | 4° |
| 2026-05-05 08:55 | 42.47104 | -8.49923 | 27852 ft | 422 kts | 4° |
| 2026-05-05 08:56 | 42.50024 | -8.49377 | 28128 ft | 425 kts | 8° |
| 2026-05-05 08:56 | 42.52887 | -8.48271 | 28417 ft | 432 kts | 17° |
| 2026-05-05 08:56 | 42.55602 | -8.46599 | 28668 ft | 437 kts | 22° |
| 2026-05-05 08:56 | 42.58342 | -8.44801 | 28934 ft | 438 kts | 22° |
| 2026-05-05 08:57 | 42.61097 | -8.42999 | 29205 ft | 440 kts | 22° |
| 2026-05-05 08:57 | 42.63860 | -8.41196 | 29574 ft | 440 kts | 21° |
| 2026-05-05 08:57 | 42.66620 | -8.39399 | 29968 ft | 439 kts | 21° |
| 2026-05-05 08:57 | 42.69370 | -8.37610 | 30330 ft | 439 kts | 21° |
| 2026-05-05 08:58 | 42.72132 | -8.35812 | 30623 ft | 439 kts | 21° |
| 2026-05-05 08:58 | 42.74882 | -8.34014 | 30903 ft | 440 kts | 22° |
| 2026-05-05 08:58 | 42.77644 | -8.32203 | 31170 ft | 441 kts | 22° |
| 2026-05-05 08:58 | 42.80408 | -8.30386 | 31440 ft | 441 kts | 22° |
| 2026-05-05 08:59 | 42.83176 | -8.28567 | 31707 ft | 442 kts | 22° |
| 2026-05-05 08:59 | 42.85955 | -8.26741 | 31977 ft | 443 kts | 22° |
| 2026-05-05 08:59 | 42.88730 | -8.24920 | 32244 ft | 443 kts | 22° |
| 2026-05-05 08:59 | 42.91509 | -8.23094 | 32525 ft | 444 kts | 22° |
| 2026-05-05 09:00 | 42.94295 | -8.21257 | 32807 ft | 444 kts | 22° |
| 2026-05-05 09:00 | 42.97079 | -8.19418 | 33087 ft | 445 kts | 22° |
| 2026-05-05 09:00 | 42.99825 | -8.17601 | 33353 ft | 445 kts | 22° |
| 2026-05-05 09:00 | 43.02612 | -8.15753 | 33638 ft | 445 kts | 22° |
| 2026-05-05 09:01 | 43.05403 | -8.13905 | 33923 ft | 446 kts | 22° |
| 2026-05-05 09:01 | 43.08197 | -8.12056 | 34185 ft | 446 kts | 22° |
| 2026-05-05 09:01 | 43.10988 | -8.10211 | 34415 ft | 446 kts | 22° |
| 2026-05-05 09:01 | 43.13781 | -8.08362 | 34655 ft | 446 kts | 22° |
| 2026-05-05 09:02 | 43.16578 | -8.06508 | 34887 ft | 446 kts | 22° |
| 2026-05-05 09:02 | 43.19375 | -8.04653 | 35101 ft | 447 kts | 22° |
| 2026-05-05 09:02 | 43.22172 | -8.02793 | 35310 ft | 447 kts | 22° |
| 2026-05-05 09:02 | 43.24967 | -8.00927 | 35516 ft | 447 kts | 22° |
| 2026-05-05 09:03 | 43.27769 | -7.99052 | 35730 ft | 447 kts | 22° |
| 2026-05-05 09:03 | 43.30526 | -7.97205 | 35932 ft | 448 kts | 22° |
| 2026-05-05 09:03 | 43.33331 | -7.95326 | 36042 ft | 449 kts | 22° |
| 2026-05-05 09:04 | 43.38959 | -7.91562 | 36060 ft | 450 kts | 22° |
| 2026-05-05 09:04 | 43.44598 | -7.87786 | 36057 ft | 451 kts | 22° |
| 2026-05-05 09:05 | 43.50233 | -7.83996 | 36050 ft | 451 kts | 23° |
| 2026-05-05 09:05 | 43.55877 | -7.80192 | 36053 ft | 451 kts | 23° |
| 2026-05-05 09:06 | 43.61515 | -7.76380 | 36054 ft | 451 kts | 23° |
| 2026-05-05 09:06 | 43.67157 | -7.72559 | 36057 ft | 452 kts | 23° |
| 2026-05-05 09:07 | 43.72805 | -7.68735 | 36056 ft | 452 kts | 23° |
| 2026-05-05 09:07 | 43.78447 | -7.64905 | 36045 ft | 452 kts | 23° |
| 2026-05-05 09:08 | 43.84094 | -7.61063 | 36059 ft | 452 kts | 23° |
| 2026-05-05 09:08 | 43.89735 | -7.57211 | 36056 ft | 452 kts | 24° |
| 2026-05-05 09:09 | 43.95338 | -7.53370 | 36060 ft | 452 kts | 24° |
| 2026-05-05 09:09 | 44.00990 | -7.49499 | 36058 ft | 452 kts | 24° |
| 2026-05-05 09:10 | 44.06626 | -7.45634 | 36063 ft | 452 kts | 24° |
| 2026-05-05 09:10 | 44.12264 | -7.41759 | 36057 ft | 451 kts | 24° |
| 2026-05-05 09:11 | 44.17894 | -7.37879 | 36054 ft | 451 kts | 24° |
| 2026-05-05 09:11 | 44.23523 | -7.33984 | 36047 ft | 451 kts | 24° |
| 2026-05-05 09:12 | 44.29146 | -7.30091 | 36045 ft | 451 kts | 24° |
| 2026-05-05 09:12 | 44.34759 | -7.26186 | 36040 ft | 451 kts | 24° |
| 2026-05-05 09:13 | 44.40346 | -7.22294 | 36043 ft | 451 kts | 24° |
| 2026-05-05 09:13 | 44.45974 | -7.18380 | 36040 ft | 451 kts | 25° |
| 2026-05-05 09:14 | 44.51590 | -7.14457 | 36034 ft | 451 kts | 25° |
| 2026-05-05 09:14 | 44.57207 | -7.10524 | 36034 ft | 451 kts | 25° |
| 2026-05-05 09:15 | 44.62820 | -7.06585 | 36035 ft | 451 kts | 25° |
| 2026-05-05 09:15 | 44.68428 | -7.02636 | 36030 ft | 451 kts | 25° |
| 2026-05-05 09:16 | 44.74037 | -6.98688 | 36026 ft | 451 kts | 25° |
| 2026-05-05 09:16 | 44.79638 | -6.94734 | 36024 ft | 450 kts | 25° |
| 2026-05-05 09:17 | 44.85226 | -6.90712 | 36024 ft | 451 kts | 27° |
| 2026-05-05 09:17 | 44.90669 | -6.86312 | 36023 ft | 451 kts | 29° |
| 2026-05-05 09:18 | 44.96011 | -6.81771 | 36020 ft | 451 kts | 30° |
| 2026-05-05 09:18 | 45.01399 | -6.77247 | 36014 ft | 451 kts | 29° |
| 2026-05-05 09:19 | 45.06817 | -6.72771 | 36011 ft | 451 kts | 29° |
| 2026-05-05 09:19 | 45.12237 | -6.68309 | 36010 ft | 451 kts | 29° |
| 2026-05-05 09:20 | 45.17652 | -6.63827 | 36013 ft | 451 kts | 29° |
| 2026-05-05 09:20 | 45.23063 | -6.59328 | 36011 ft | 451 kts | 29° |
| 2026-05-05 09:21 | 45.28466 | -6.54825 | 36002 ft | 450 kts | 29° |
| 2026-05-05 09:21 | 45.33864 | -6.50305 | 36002 ft | 450 kts | 30° |
| 2026-05-05 09:22 | 45.39267 | -6.45779 | 36010 ft | 450 kts | 29° |
| 2026-05-05 09:22 | 45.44669 | -6.41257 | 36001 ft | 450 kts | 30° |
| 2026-05-05 09:23 | 45.50071 | -6.36715 | 36004 ft | 450 kts | 30° |
| 2026-05-05 09:23 | 45.55427 | -6.32192 | 35999 ft | 450 kts | 30° |
| 2026-05-05 09:24 | 45.60815 | -6.27633 | 35997 ft | 450 kts | 30° |
| 2026-05-05 09:24 | 45.66204 | -6.23076 | 35994 ft | 450 kts | 30° |
| 2026-05-05 09:25 | 45.71596 | -6.18509 | 36000 ft | 450 kts | 30° |
| 2026-05-05 09:25 | 45.76069 | -6.14693 | 36003 ft | 450 kts | 30° |
| 2026-05-05 09:26 | 45.81452 | -6.10091 | 35996 ft | 450 kts | 30° |
| 2026-05-05 09:26 | 45.86841 | -6.05497 | 36001 ft | 450 kts | 30° |
| 2026-05-05 09:27 | 45.92218 | -6.00902 | 36000 ft | 450 kts | 30° |
| 2026-05-05 09:27 | 45.97599 | -5.96293 | 36000 ft | 450 kts | 30° |
| 2026-05-05 09:28 | 46.02971 | -5.91659 | 35996 ft | 450 kts | 30° |
| 2026-05-05 09:28 | 46.08346 | -5.87011 | 35986 ft | 451 kts | 30° |
| 2026-05-05 09:29 | 46.13696 | -5.82405 | 35991 ft | 451 kts | 31° |
| 2026-05-05 09:29 | 46.19077 | -5.77746 | 35987 ft | 451 kts | 31° |
| 2026-05-05 09:30 | 46.24462 | -5.73068 | 35986 ft | 451 kts | 31° |
| 2026-05-05 09:30 | 46.29837 | -5.68387 | 35986 ft | 452 kts | 31° |
| 2026-05-05 09:31 | 46.35227 | -5.63685 | 35983 ft | 452 kts | 31° |
| 2026-05-05 09:31 | 46.40613 | -5.58979 | 35990 ft | 452 kts | 31° |
| 2026-05-05 09:32 | 46.46000 | -5.54269 | 35978 ft | 452 kts | 31° |
| 2026-05-05 09:32 | 46.51351 | -5.49573 | 35983 ft | 453 kts | 32° |
| 2026-05-05 09:33 | 46.56740 | -5.44814 | 35986 ft | 452 kts | 32° |
| 2026-05-05 09:33 | 46.62121 | -5.40061 | 35983 ft | 452 kts | 32° |
| 2026-05-05 09:34 | 46.67504 | -5.35317 | 35981 ft | 452 kts | 32° |
| 2026-05-05 09:34 | 46.72883 | -5.30557 | 35989 ft | 452 kts | 32° |
| 2026-05-05 09:35 | 46.78231 | -5.25802 | 35985 ft | 452 kts | 32° |
| 2026-05-05 09:35 | 46.86287 | -5.18625 | 35984 ft | 452 kts | 32° |
| 2026-05-05 09:36 | 46.91657 | -5.13828 | 35987 ft | 452 kts | 32° |
| 2026-05-05 09:36 | 46.97019 | -5.09018 | 35981 ft | 452 kts | 32° |
| 2026-05-05 09:37 | 47.02384 | -5.04200 | 35984 ft | 452 kts | 32° |
| 2026-05-05 09:37 | 47.07753 | -4.99377 | 35985 ft | 452 kts | 32° |
| 2026-05-05 09:38 | 47.13077 | -4.94577 | 35980 ft | 452 kts | 32° |
| 2026-05-05 09:38 | 47.18435 | -4.89732 | 35982 ft | 452 kts | 33° |
| 2026-05-05 09:39 | 47.23794 | -4.84878 | 35985 ft | 452 kts | 32° |
| 2026-05-05 09:39 | 47.29151 | -4.80016 | 35989 ft | 452 kts | 33° |
| 2026-05-05 09:40 | 47.34500 | -4.75143 | 35991 ft | 452 kts | 33° |
| 2026-05-05 09:40 | 47.39854 | -4.70259 | 35988 ft | 452 kts | 33° |
| 2026-05-05 09:41 | 47.45202 | -4.65372 | 35984 ft | 452 kts | 33° |
| 2026-05-05 09:41 | 47.50541 | -4.60473 | 35986 ft | 452 kts | 33° |
| 2026-05-05 09:42 | 47.55842 | -4.55589 | 35981 ft | 451 kts | 33° |
| 2026-05-05 09:42 | 47.61172 | -4.50680 | 35983 ft | 451 kts | 33° |
| 2026-05-05 09:43 | 47.66497 | -4.45763 | 35980 ft | 451 kts | 33° |
| 2026-05-05 09:43 | 47.71822 | -4.40832 | 35978 ft | 451 kts | 33° |
| 2026-05-05 09:44 | 47.77152 | -4.35886 | 35975 ft | 451 kts | 33° |
| 2026-05-05 09:44 | 47.82612 | -4.31267 | 35976 ft | 453 kts | 23° |
| 2026-05-05 09:45 | 47.88640 | -4.28490 | 35972 ft | 454 kts | 17° |
| 2026-05-05 09:45 | 47.94721 | -4.25893 | 35973 ft | 454 kts | 17° |
| 2026-05-05 09:46 | 48.00800 | -4.23277 | 35971 ft | 454 kts | 17° |
| 2026-05-05 09:46 | 48.06875 | -4.20664 | 35972 ft | 454 kts | 17° |
| 2026-05-05 09:47 | 48.12955 | -4.18043 | 35972 ft | 455 kts | 17° |
| 2026-05-05 09:47 | 48.19037 | -4.15420 | 35987 ft | 455 kts | 17° |
| 2026-05-05 09:48 | 48.25112 | -4.12793 | 35984 ft | 455 kts | 17° |
| 2026-05-05 09:48 | 48.31194 | -4.10160 | 35970 ft | 455 kts | 17° |
| 2026-05-05 09:49 | 48.37272 | -4.07517 | 35970 ft | 455 kts | 17° |
| 2026-05-05 09:49 | 48.43349 | -4.04860 | 35970 ft | 455 kts | 17° |
| 2026-05-05 09:50 | 48.49434 | -4.02201 | 35969 ft | 455 kts | 17° |
| 2026-05-05 09:50 | 48.55473 | -3.99557 | 35966 ft | 455 kts | 17° |
| 2026-05-05 09:51 | 48.61559 | -3.96881 | 35970 ft | 455 kts | 17° |
| 2026-05-05 09:51 | 48.67649 | -3.94205 | 35969 ft | 455 kts | 17° |
| 2026-05-05 09:52 | 48.73728 | -3.91523 | 35961 ft | 455 kts | 17° |
| 2026-05-05 09:52 | 48.79805 | -3.88828 | 35962 ft | 455 kts | 17° |
| 2026-05-05 09:53 | 48.85878 | -3.86121 | 35954 ft | 455 kts | 17° |
| 2026-05-05 09:53 | 48.91959 | -3.83413 | 35958 ft | 455 kts | 17° |
| 2026-05-05 09:54 | 48.98085 | -3.81024 | 35969 ft | 456 kts | 8° |
| 2026-05-05 09:54 | 49.04424 | -3.80478 | 35967 ft | 456 kts | 3° |
| 2026-05-05 09:55 | 49.10734 | -3.80089 | 35980 ft | 457 kts | 3° |
| 2026-05-05 09:55 | 49.17088 | -3.79687 | 35991 ft | 457 kts | 3° |
| 2026-05-05 09:56 | 49.23443 | -3.79294 | 35995 ft | 457 kts | 3° |
| 2026-05-05 09:56 | 49.29793 | -3.78910 | 35997 ft | 456 kts | 2° |
| 2026-05-05 09:57 | 49.36130 | -3.78526 | 35991 ft | 455 kts | 2° |
| 2026-05-05 09:57 | 49.42459 | -3.78141 | 35994 ft | 455 kts | 3° |
| 2026-05-05 09:58 | 49.48736 | -3.77751 | 35992 ft | 454 kts | 2° |
| 2026-05-05 09:58 | 49.55055 | -3.77359 | 36001 ft | 454 kts | 3° |
| 2026-05-05 09:59 | 49.61367 | -3.76957 | 36002 ft | 454 kts | 3° |
| 2026-05-05 09:59 | 49.67689 | -3.76559 | 35999 ft | 454 kts | 4° |
| 2026-05-05 10:00 | 49.73890 | -3.74797 | 36002 ft | 453 kts | 14° |
| 2026-05-05 10:00 | 49.80013 | -3.72465 | 35988 ft | 453 kts | 14° |
| 2026-05-05 10:01 | 49.86095 | -3.70144 | 35990 ft | 453 kts | 14° |
| 2026-05-05 10:01 | 49.92219 | -3.67803 | 35985 ft | 453 kts | 14° |
| 2026-05-05 10:02 | 49.98345 | -3.65446 | 35988 ft | 454 kts | 14° |
| 2026-05-05 10:02 | 50.04487 | -3.63082 | 35997 ft | 455 kts | 14° |
| 2026-05-05 10:03 | 50.10632 | -3.60724 | 36000 ft | 455 kts | 14° |
| 2026-05-05 10:03 | 50.16747 | -3.58370 | 36006 ft | 455 kts | 14° |
| 2026-05-05 10:04 | 50.22895 | -3.55990 | 36011 ft | 455 kts | 14° |
| 2026-05-05 10:04 | 50.29037 | -3.53596 | 36015 ft | 455 kts | 14° |
| 2026-05-05 10:05 | 50.35182 | -3.51200 | 36016 ft | 455 kts | 14° |
| 2026-05-05 10:05 | 50.41363 | -3.49076 | 36015 ft | 455 kts | 7° |
| 2026-05-05 10:06 | 50.47652 | -3.47898 | 36016 ft | 455 kts | 7° |
| 2026-05-05 10:06 | 50.53937 | -3.46716 | 36022 ft | 456 kts | 7° |
| 2026-05-05 10:07 | 50.60232 | -3.45523 | 36020 ft | 456 kts | 7° |
| 2026-05-05 10:07 | 50.66524 | -3.44327 | 36019 ft | 456 kts | 7° |
| 2026-05-05 10:08 | 50.72847 | -3.43112 | 36013 ft | 457 kts | 7° |
| 2026-05-05 10:08 | 50.79156 | -3.41893 | 36018 ft | 458 kts | 7° |
| 2026-05-05 10:09 | 50.85488 | -3.40675 | 36018 ft | 458 kts | 7° |
| 2026-05-05 10:09 | 50.91796 | -3.39464 | 36015 ft | 458 kts | 7° |
| 2026-05-05 10:10 | 50.98154 | -3.38230 | 36019 ft | 459 kts | 7° |
| 2026-05-05 10:10 | 51.04459 | -3.37002 | 36019 ft | 459 kts | 7° |
| 2026-05-05 10:11 | 51.10811 | -3.35775 | 36024 ft | 460 kts | 7° |
| 2026-05-05 10:11 | 51.17183 | -3.34540 | 36032 ft | 460 kts | 7° |
| 2026-05-05 10:12 | 51.23491 | -3.33291 | 36037 ft | 460 kts | 7° |
| 2026-05-05 10:12 | 51.29843 | -3.32004 | 36040 ft | 460 kts | 7° |
| 2026-05-05 10:13 | 51.36182 | -3.30717 | 36044 ft | 459 kts | 7° |
| 2026-05-05 10:13 | 51.42517 | -3.29431 | 36044 ft | 459 kts | 7° |
| 2026-05-05 10:14 | 51.48878 | -3.28133 | 36044 ft | 458 kts | 7° |
| 2026-05-05 10:14 | 51.55206 | -3.26839 | 36045 ft | 458 kts | 7° |
| 2026-05-05 10:15 | 51.61446 | -3.25563 | 36045 ft | 457 kts | 7° |
| 2026-05-05 10:15 | 51.67786 | -3.24262 | 36029 ft | 457 kts | 7° |
| 2026-05-05 10:16 | 51.74102 | -3.22960 | 36029 ft | 456 kts | 7° |
| 2026-05-05 10:16 | 51.80394 | -3.21662 | 36030 ft | 455 kts | 7° |
| 2026-05-05 10:17 | 51.86677 | -3.20369 | 36038 ft | 454 kts | 7° |
| 2026-05-05 10:17 | 51.92946 | -3.19201 | 36038 ft | 454 kts | 5° |
| 2026-05-05 10:18 | 51.99210 | -3.18668 | 36043 ft | 453 kts | 2° |
| 2026-05-05 10:18 | 52.05514 | -3.18381 | 36053 ft | 452 kts | 2° |
| 2026-05-05 10:19 | 52.11803 | -3.18005 | 36056 ft | 452 kts | 2° |
| 2026-05-05 10:19 | 52.18087 | -3.17504 | 36060 ft | 452 kts | 3° |
| 2026-05-05 10:20 | 52.24354 | -3.16979 | 36061 ft | 451 kts | 3° |
| 2026-05-05 10:20 | 52.29563 | -3.16565 | 36063 ft | 450 kts | 3° |
| 2026-05-05 10:21 | 52.35819 | -3.16091 | 36063 ft | 450 kts | 3° |
| 2026-05-05 10:21 | 52.42071 | -3.15611 | 36060 ft | 450 kts | 3° |
| 2026-05-05 10:22 | 52.48326 | -3.15117 | 36062 ft | 449 kts | 3° |
| 2026-05-05 10:22 | 52.54562 | -3.14628 | 36066 ft | 449 kts | 3° |
| 2026-05-05 10:23 | 52.60808 | -3.14141 | 36060 ft | 449 kts | 2° |
| 2026-05-05 10:23 | 52.67049 | -3.13659 | 36064 ft | 448 kts | 2° |
| 2026-05-05 10:24 | 52.73167 | -3.11963 | 36055 ft | 448 kts | 19° |
| 2026-05-05 10:24 | 52.78865 | -3.07788 | 36048 ft | 448 kts | 25° |
| 2026-05-05 10:25 | 52.84497 | -3.03366 | 36047 ft | 449 kts | 25° |
| 2026-05-05 10:25 | 52.90128 | -2.99026 | 36044 ft | 449 kts | 21° |
| 2026-05-05 10:26 | 52.95994 | -2.95456 | 36040 ft | 449 kts | 20° |
| 2026-05-05 10:26 | 53.01860 | -2.91873 | 36045 ft | 450 kts | 20° |
| 2026-05-05 10:27 | 53.07746 | -2.88257 | 36046 ft | 451 kts | 19° |
| 2026-05-05 10:27 | 53.13633 | -2.84626 | 36046 ft | 451 kts | 19° |
| 2026-05-05 10:28 | 53.19527 | -2.80970 | 36044 ft | 452 kts | 19° |
| 2026-05-05 10:28 | 53.25426 | -2.77294 | 36051 ft | 453 kts | 19° |
| 2026-05-05 10:29 | 53.31326 | -2.73618 | 36055 ft | 453 kts | 19° |
| 2026-05-05 10:29 | 53.37235 | -2.69931 | 36052 ft | 453 kts | 19° |
| 2026-05-05 10:30 | 53.43135 | -2.66231 | 36054 ft | 453 kts | 19° |
| 2026-05-05 10:30 | 53.49046 | -2.62515 | 36051 ft | 453 kts | 19° |
| 2026-05-05 10:31 | 53.54951 | -2.58799 | 36051 ft | 453 kts | 19° |
| 2026-05-05 10:31 | 53.60861 | -2.55060 | 36056 ft | 454 kts | 19° |
| 2026-05-05 10:32 | 53.66770 | -2.51306 | 36057 ft | 454 kts | 19° |
| 2026-05-05 10:32 | 53.72663 | -2.47562 | 36056 ft | 453 kts | 19° |
| 2026-05-05 10:33 | 53.78571 | -2.43794 | 36049 ft | 453 kts | 19° |
| 2026-05-05 10:33 | 53.84471 | -2.40016 | 36033 ft | 453 kts | 19° |
| 2026-05-05 10:34 | 53.90367 | -2.36223 | 36041 ft | 454 kts | 19° |
| 2026-05-05 10:34 | 53.96274 | -2.32420 | 36031 ft | 454 kts | 19° |
| 2026-05-05 10:35 | 54.02182 | -2.28559 | 36034 ft | 455 kts | 20° |
| 2026-05-05 10:35 | 54.07958 | -2.24139 | 36030 ft | 456 kts | 24° |
| 2026-05-05 10:36 | 54.13650 | -2.19335 | 36028 ft | 457 kts | 25° |
| 2026-05-05 10:36 | 54.19354 | -2.14535 | 36030 ft | 457 kts | 24° |
| 2026-05-05 10:37 | 54.25047 | -2.09867 | 36033 ft | 457 kts | 23° |
| 2026-05-05 10:37 | 54.30796 | -2.05194 | 36031 ft | 457 kts | 23° |
| 2026-05-05 10:38 | 54.36541 | -2.00490 | 36032 ft | 458 kts | 23° |
| 2026-05-05 10:38 | 54.42282 | -1.95747 | 36037 ft | 458 kts | 23° |
| 2026-05-05 10:39 | 54.48024 | -1.90986 | 36031 ft | 458 kts | 23° |
| 2026-05-05 10:39 | 54.53772 | -1.86217 | 36039 ft | 459 kts | 23° |
| 2026-05-05 10:40 | 54.59525 | -1.81429 | 36034 ft | 459 kts | 23° |
| 2026-05-05 10:40 | 54.65274 | -1.76632 | 36038 ft | 459 kts | 23° |
| 2026-05-05 10:41 | 54.71024 | -1.71818 | 36037 ft | 459 kts | 23° |
| 2026-05-05 10:41 | 54.76740 | -1.67017 | 36049 ft | 459 kts | 23° |
| 2026-05-05 10:42 | 54.85405 | -1.59704 | 36055 ft | 460 kts | 23° |
| 2026-05-05 10:43 | 54.91125 | -1.54858 | 36058 ft | 460 kts | 23° |
| 2026-05-05 10:43 | 54.96884 | -1.49954 | 36062 ft | 460 kts | 23° |
| 2026-05-05 10:44 | 55.02638 | -1.45028 | 36061 ft | 461 kts | 23° |
| 2026-05-05 10:44 | 55.08393 | -1.40096 | 36062 ft | 461 kts | 23° |
| 2026-05-05 10:45 | 55.14157 | -1.35163 | 36064 ft | 461 kts | 23° |
| 2026-05-05 10:45 | 55.19923 | -1.30220 | 36063 ft | 462 kts | 23° |
| 2026-05-05 10:46 | 55.25694 | -1.25240 | 36064 ft | 462 kts | 23° |
| 2026-05-05 10:46 | 55.31448 | -1.20234 | 36067 ft | 462 kts | 23° |
| 2026-05-05 10:47 | 55.37209 | -1.15211 | 36065 ft | 462 kts | 23° |
| 2026-05-05 10:47 | 55.42966 | -1.10195 | 36063 ft | 462 kts | 23° |
| 2026-05-05 10:48 | 55.48691 | -1.05193 | 36063 ft | 462 kts | 23° |
| 2026-05-05 10:48 | 55.54453 | -1.00130 | 36062 ft | 462 kts | 23° |
| 2026-05-05 10:49 | 55.60211 | -0.95053 | 36052 ft | 462 kts | 23° |
| 2026-05-05 10:49 | 55.65963 | -0.89965 | 36044 ft | 463 kts | 23° |
| 2026-05-05 10:50 | 55.71724 | -0.84858 | 36046 ft | 463 kts | 23° |
| 2026-05-05 10:50 | 55.77489 | -0.79740 | 36041 ft | 463 kts | 23° |
| 2026-05-05 10:51 | 55.83249 | -0.74594 | 36044 ft | 463 kts | 23° |
| 2026-05-05 10:51 | 55.88974 | -0.69463 | 36045 ft | 464 kts | 23° |
| 2026-05-05 10:52 | 55.94742 | -0.64285 | 36044 ft | 464 kts | 23° |
| 2026-05-05 10:52 | 56.00502 | -0.59084 | 36042 ft | 464 kts | 23° |
| 2026-05-05 10:53 | 56.06261 | -0.53858 | 36047 ft | 464 kts | 23° |
| 2026-05-05 10:53 | 56.12023 | -0.48622 | 36045 ft | 464 kts | 23° |
| 2026-05-05 10:54 | 56.17786 | -0.43385 | 36044 ft | 464 kts | 23° |
| 2026-05-05 10:54 | 56.23550 | -0.38126 | 36047 ft | 464 kts | 23° |
| 2026-05-05 10:55 | 56.29308 | -0.32846 | 36048 ft | 465 kts | 23° |
| 2026-05-05 10:55 | 56.35068 | -0.27541 | 36042 ft | 465 kts | 23° |
| 2026-05-05 10:56 | 56.40822 | -0.22233 | 36043 ft | 465 kts | 23° |
| 2026-05-05 10:56 | 56.46576 | -0.16901 | 36047 ft | 465 kts | 23° |
| 2026-05-05 10:57 | 56.52328 | -0.11553 | 36048 ft | 465 kts | 23° |
| 2026-05-05 10:57 | 56.58036 | -0.06224 | 36050 ft | 465 kts | 23° |
| 2026-05-05 10:58 | 56.63789 | -0.00824 | 36052 ft | 465 kts | 23° |
| 2026-05-05 10:58 | 56.69533 | 0.04581 | 36055 ft | 465 kts | 23° |
| 2026-05-05 10:59 | 56.75282 | 0.09993 | 36058 ft | 465 kts | 23° |
| 2026-05-05 10:59 | 56.81032 | 0.15427 | 36056 ft | 466 kts | 23° |
| 2026-05-05 11:00 | 56.86785 | 0.20901 | 36057 ft | 466 kts | 23° |
| 2026-05-05 11:00 | 56.92535 | 0.26391 | 36055 ft | 466 kts | 23° |
| 2026-05-05 11:01 | 56.98296 | 0.31874 | 36059 ft | 467 kts | 23° |
| 2026-05-05 11:01 | 57.04017 | 0.37355 | 36061 ft | 467 kts | 23° |
| 2026-05-05 11:02 | 57.09777 | 0.42909 | 36063 ft | 468 kts | 23° |
| 2026-05-05 11:02 | 57.15544 | 0.48493 | 36060 ft | 468 kts | 23° |
| 2026-05-05 11:03 | 57.21312 | 0.54078 | 36066 ft | 469 kts | 22° |
| 2026-05-05 11:03 | 57.27082 | 0.59698 | 36073 ft | 469 kts | 23° |
| 2026-05-05 11:04 | 57.32857 | 0.65342 | 36060 ft | 469 kts | 22° |
| 2026-05-05 11:04 | 57.38629 | 0.70989 | 36068 ft | 470 kts | 22° |
| 2026-05-05 11:05 | 57.44408 | 0.76664 | 36075 ft | 470 kts | 22° |
| 2026-05-05 11:05 | 57.50180 | 0.82372 | 36079 ft | 470 kts | 23° |
| 2026-05-05 11:06 | 57.55913 | 0.88062 | 36081 ft | 470 kts | 22° |
| 2026-05-05 11:06 | 57.61695 | 0.93795 | 36086 ft | 470 kts | 22° |
| 2026-05-05 11:07 | 57.67478 | 0.99555 | 36094 ft | 471 kts | 22° |
| 2026-05-05 11:07 | 57.73250 | 1.05349 | 36094 ft | 471 kts | 23° |
| 2026-05-05 11:08 | 57.79016 | 1.11162 | 36095 ft | 471 kts | 22° |
| 2026-05-05 11:08 | 57.84799 | 1.16975 | 36090 ft | 471 kts | 22° |
| 2026-05-05 11:09 | 57.90581 | 1.22804 | 36090 ft | 471 kts | 22° |
| 2026-05-05 11:09 | 57.95380 | 1.27689 | 36090 ft | 472 kts | 23° |
| 2026-05-05 11:10 | 58.02083 | 1.34546 | 36087 ft | 472 kts | 22° |
| 2026-05-05 11:10 | 58.07854 | 1.40442 | 36085 ft | 472 kts | 22° |
| 2026-05-05 11:11 | 58.13629 | 1.46364 | 36084 ft | 472 kts | 23° |
| 2026-05-05 11:11 | 58.18420 | 1.51311 | 36071 ft | 472 kts | 22° |
| 2026-05-05 11:12 | 58.24192 | 1.57285 | 36068 ft | 472 kts | 22° |
| 2026-05-05 11:12 | 58.29966 | 1.63284 | 36067 ft | 473 kts | 22° |
| 2026-05-05 11:13 | 58.35734 | 1.69297 | 36069 ft | 473 kts | 22° |
| 2026-05-05 11:13 | 58.41500 | 1.75331 | 36068 ft | 473 kts | 22° |
| 2026-05-05 11:14 | 58.47268 | 1.81380 | 36067 ft | 473 kts | 22° |
| 2026-05-05 11:14 | 58.53045 | 1.87464 | 36069 ft | 473 kts | 23° |
| 2026-05-05 11:15 | 58.58773 | 1.93520 | 36066 ft | 474 kts | 23° |
| 2026-05-05 11:15 | 58.64535 | 1.99652 | 36070 ft | 474 kts | 23° |
| 2026-05-05 11:16 | 58.70304 | 2.05807 | 36070 ft | 474 kts | 23° |
| 2026-05-05 11:16 | 58.76063 | 2.11970 | 36069 ft | 474 kts | 23° |
| 2026-05-05 11:17 | 58.81674 | 2.18758 | 36070 ft | 480 kts | 30° |
| 2026-05-05 11:17 | 58.87028 | 2.26314 | 36062 ft | 480 kts | 30° |
| 2026-05-05 11:18 | 58.92424 | 2.33942 | 36060 ft | 480 kts | 30° |
| 2026-05-05 11:18 | 58.97815 | 2.41589 | 36057 ft | 481 kts | 30° |
| 2026-05-05 11:19 | 59.03208 | 2.49268 | 36061 ft | 481 kts | 30° |
| 2026-05-05 11:19 | 59.08595 | 2.56969 | 36065 ft | 481 kts | 30° |
| 2026-05-05 11:20 | 59.13982 | 2.64676 | 36050 ft | 481 kts | 30° |
| 2026-05-05 11:20 | 59.19366 | 2.72428 | 36060 ft | 481 kts | 30° |
| 2026-05-05 11:21 | 59.24705 | 2.80151 | 36065 ft | 481 kts | 30° |
| 2026-05-05 11:21 | 59.30079 | 2.87956 | 36068 ft | 481 kts | 30° |
| 2026-05-05 11:22 | 59.35444 | 2.95773 | 36068 ft | 481 kts | 30° |
| 2026-05-05 11:22 | 59.40817 | 3.03636 | 36068 ft | 481 kts | 31° |
| 2026-05-05 11:23 | 59.46178 | 3.11531 | 36067 ft | 481 kts | 31° |
| 2026-05-05 11:23 | 59.51538 | 3.19448 | 36065 ft | 482 kts | 31° |
| 2026-05-05 11:24 | 59.56896 | 3.27380 | 36064 ft | 482 kts | 31° |
| 2026-05-05 11:24 | 59.62259 | 3.35351 | 36058 ft | 482 kts | 31° |
| 2026-05-05 11:25 | 59.67581 | 3.43310 | 36058 ft | 483 kts | 31° |
| 2026-05-05 11:25 | 59.72935 | 3.51359 | 36045 ft | 484 kts | 31° |
| 2026-05-05 11:26 | 59.78294 | 3.59447 | 36047 ft | 484 kts | 31° |
| 2026-05-05 11:26 | 59.83659 | 3.67565 | 36047 ft | 485 kts | 31° |
| 2026-05-05 11:27 | 59.89004 | 3.75694 | 34945 ft | 482 kts | 30° |
| 2026-05-05 11:27 | 59.91671 | 3.79756 | 33688 ft | 485 kts | 29° |
| 2026-05-05 11:27 | 59.94356 | 3.83852 | 32224 ft | 487 kts | 28° |
| 2026-05-05 11:27 | 59.97053 | 3.87976 | 30793 ft | 490 kts | 27° |
| 2026-05-05 11:28 | 59.99767 | 3.92132 | 29194 ft | 493 kts | 27° |
| 2026-05-05 11:28 | 60.02474 | 3.96293 | 27906 ft | 487 kts | 27° |
| 2026-05-05 11:28 | 60.05111 | 4.00498 | 26761 ft | 481 kts | 30° |
| 2026-05-05 11:28 | 60.07634 | 4.04849 | 25682 ft | 476 kts | 31° |
| 2026-05-05 11:29 | 60.10065 | 4.09301 | 24638 ft | 470 kts | 33° |
| 2026-05-05 11:29 | 60.12423 | 4.13766 | 23632 ft | 463 kts | 33° |
| 2026-05-05 11:29 | 60.14744 | 4.18193 | 22489 ft | 455 kts | 34° |
| 2026-05-05 11:29 | 60.16985 | 4.22434 | 21557 ft | 443 kts | 34° |
| 2026-05-05 11:30 | 60.19212 | 4.26593 | 20637 ft | 430 kts | 34° |
| 2026-05-05 11:30 | 60.21390 | 4.30609 | 19752 ft | 418 kts | 35° |
| 2026-05-05 11:30 | 60.23514 | 4.34494 | 18898 ft | 407 kts | 36° |
| 2026-05-05 11:30 | 60.25569 | 4.38241 | 18454 ft | 386 kts | 36° |
| 2026-05-05 11:31 | 60.27486 | 4.41759 | 18328 ft | 360 kts | 36° |
| 2026-05-05 11:31 | 60.29269 | 4.45055 | 18111 ft | 339 kts | 35° |
| 2026-05-05 11:31 | 60.30981 | 4.48222 | 17551 ft | 330 kts | 36° |
| 2026-05-05 11:31 | 60.32657 | 4.51322 | 16917 ft | 324 kts | 36° |
| 2026-05-05 11:32 | 60.34311 | 4.54372 | 16283 ft | 320 kts | 36° |
| 2026-05-05 11:32 | 60.35917 | 4.57453 | 15655 ft | 319 kts | 43° |
| 2026-05-05 11:32 | 60.37196 | 4.61131 | 15046 ft | 321 kts | 55° |
| 2026-05-05 11:32 | 60.38223 | 4.64726 | 14721 ft | 310 kts | 56° |
| 2026-05-05 11:33 | 60.39422 | 4.68114 | 14592 ft | 283 kts | 36° |
| 2026-05-05 11:33 | 60.41019 | 4.70087 | 14266 ft | 261 kts | 11° |
| 2026-05-05 11:33 | 60.42762 | 4.70541 | 13820 ft | 247 kts | 348° |
| 2026-05-05 11:33 | 60.44390 | 4.69684 | 13271 ft | 240 kts | 335° |
| 2026-05-05 11:34 | 60.46002 | 4.68727 | 12700 ft | 245 kts | 347° |
| 2026-05-05 11:34 | 60.47716 | 4.68605 | 12151 ft | 247 kts | 355° |
| 2026-05-05 11:34 | 60.49413 | 4.68632 | 11623 ft | 247 kts | 355° |
| 2026-05-05 11:34 | 60.51147 | 4.68698 | 11101 ft | 248 kts | 1° |
| 2026-05-05 11:35 | 60.52810 | 4.69522 | 10592 ft | 252 kts | 16° |
| 2026-05-05 11:35 | 60.54450 | 4.70774 | 10071 ft | 252 kts | 15° |
| 2026-05-05 11:35 | 60.56088 | 4.72014 | 9534 ft | 250 kts | 17° |
| 2026-05-05 11:35 | 60.57622 | 4.73724 | 8975 ft | 254 kts | 33° |
| 2026-05-05 11:36 | 60.58979 | 4.76024 | 8419 ft | 253 kts | 36° |
| 2026-05-05 11:36 | 60.60317 | 4.78335 | 7885 ft | 251 kts | 37° |
| 2026-05-05 11:36 | 60.61532 | 4.80884 | 7349 ft | 252 kts | 51° |
| 2026-05-05 11:36 | 60.62414 | 4.83964 | 6814 ft | 252 kts | 64° |
| 2026-05-05 11:37 | 60.62806 | 4.87422 | 6299 ft | 251 kts | 91° |
| 2026-05-05 11:37 | 60.62419 | 4.90804 | 6001 ft | 245 kts | 119° |
| 2026-05-05 11:37 | 60.61374 | 4.93515 | 5920 ft | 243 kts | 145° |
| 2026-05-05 11:37 | 60.59908 | 4.95053 | 5550 ft | 236 kts | 168° |
| 2026-05-05 11:38 | 60.58330 | 4.95969 | 5168 ft | 236 kts | 168° |
| 2026-05-05 11:38 | 60.56757 | 4.96900 | 4830 ft | 235 kts | 168° |
| 2026-05-05 11:38 | 60.55196 | 4.97836 | 4486 ft | 233 kts | 167° |
| 2026-05-05 11:38 | 60.53641 | 4.98770 | 4196 ft | 233 kts | 167° |
| 2026-05-05 11:39 | 60.52091 | 4.99708 | 3860 ft | 232 kts | 167° |
| 2026-05-05 11:39 | 60.50561 | 5.00707 | 3545 ft | 231 kts | 159° |
| 2026-05-05 11:39 | 60.49259 | 5.02557 | 3235 ft | 235 kts | 136° |
| 2026-05-05 11:39 | 60.48388 | 5.05407 | 3017 ft | 236 kts | 110° |
| 2026-05-05 11:40 | 60.48035 | 5.08657 | 3004 ft | 238 kts | 101° |
| 2026-05-05 11:40 | 60.47553 | 5.11753 | 3002 ft | 226 kts | 120° |
| 2026-05-05 11:40 | 60.46638 | 5.14268 | 3001 ft | 215 kts | 140° |
| 2026-05-05 11:40 | 60.45475 | 5.15949 | 3006 ft | 201 kts | 158° |
| 2026-05-05 11:41 | 60.44177 | 5.16808 | 2967 ft | 193 kts | 174° |
| 2026-05-05 11:41 | 60.42858 | 5.17254 | 2780 ft | 191 kts | 175° |
| 2026-05-05 11:41 | 60.41581 | 5.17685 | 2551 ft | 182 kts | 175° |
| 2026-05-05 11:41 | 60.40391 | 5.18090 | 2327 ft | 164 kts | 175° |
| 2026-05-05 11:42 | 60.39321 | 5.18454 | 2072 ft | 148 kts | 176° |
| 2026-05-05 11:42 | 60.38338 | 5.18785 | 1859 ft | 141 kts | 176° |
| 2026-05-05 11:42 | 60.37381 | 5.19107 | 1682 ft | 138 kts | 176° |
| 2026-05-05 11:42 | 60.36442 | 5.19422 | 1475 ft | 136 kts | 177° |
| 2026-05-05 11:43 | 60.35508 | 5.19736 | 1286 ft | 136 kts | 175° |
| 2026-05-05 11:43 | 60.34577 | 5.20050 | 1085 ft | 136 kts | 176° |
| 2026-05-05 11:43 | 60.33655 | 5.20357 | 878 ft | 132 kts | 175° |
| 2026-05-05 11:43 | 60.32753 | 5.20688 | 701 ft | 130 kts | 173° |
| 2026-05-05 11:44 | 60.31863 | 5.20994 | 511 ft | 129 kts | 176° |
| 2026-05-05 11:44 | 60.30995 | 5.21273 | 310 ft | 128 kts | 174° |
| 2026-05-05 11:44 | 60.30681 | 5.21376 | 258 ft | 127 kts | 175° |
| 2026-05-05 11:44 | 60.29832 | 5.21647 | 177 ft | 111 kts | 169° |
| 2026-05-05 11:45 | 60.29243 | 5.21839 | 174 ft | 62 kts | 171° |
| 2026-05-05 11:45 | 60.28976 | 5.21942 | 175 ft | 25 kts | 170° |
| 2026-05-05 11:45 | 60.28916 | 5.22162 | 173 ft | 5 kts | 77° |
| 2026-05-05 11:45 | 60.28916 | 5.22163 | 174 ft | 0 kts | 77° |
| 2026-05-05 11:46 | 60.28924 | 5.22235 | 174 ft | 11 kts | 78° |
| 2026-05-05 11:46 | 60.28904 | 5.22401 | 174 ft | 13 kts | 176° |
| 2026-05-05 11:47 | 60.28839 | 5.22465 | 174 ft | 2 kts | 80° |
| 2026-05-05 11:47 | 60.28846 | 5.22484 | 174 ft | 1 kts | 63° |